createdAt,value
2023-03-23T16:01:42.683Z,10.13
2023-03-23T16:08:24.939Z,7.75
2023-03-23T16:15:09.314Z,11.38
2023-03-23T16:21:51.537Z,17.13
2023-03-23T16:28:33.873Z,6.32
2023-03-23T16:35:17.281Z,16.67
2023-03-23T16:41:59.506Z,18.23
2023-03-23T16:48:41.780Z,7.22
2023-03-23T16:55:26.169Z,7.10
2023-03-23T17:02:11.679Z,9.38
2023-03-23T17:08:54.209Z,10.05
2023-03-23T17:15:39.209Z,6.85
2023-03-23T17:22:21.495Z,9.07
2023-03-23T17:29:04.379Z,5.72
2023-03-23T17:35:51.739Z,6.63
2023-03-23T17:42:34.505Z,7.90
2023-03-23T17:49:16.841Z,6.43
2023-03-23T17:55:59.534Z,7.57
2023-03-23T18:02:41.873Z,6.82
2023-03-23T18:09:25.495Z,7.00
2023-03-23T18:16:08.629Z,13.00
2023-03-23T18:22:50.851Z,8.77
2023-03-23T18:29:33.025Z,12.35
2023-03-23T18:36:22.767Z,8.98
2023-03-23T18:43:04.949Z,8.68
2023-03-23T18:49:51.919Z,7.68
2023-03-23T18:56:34.065Z,7.40
2023-03-23T19:03:17.104Z,9.30
2023-03-23T19:09:59.541Z,6.35
2023-03-23T19:16:42.042Z,11.48
2023-03-23T19:23:24.475Z,5.85
2023-03-23T19:30:09.487Z,4.65
2023-03-23T19:36:56.185Z,4.22
2023-03-23T19:43:45.260Z,9.27
2023-03-23T19:50:27.609Z,7.93
2023-03-23T19:57:10.499Z,3.90
2023-03-23T20:03:53.858Z,4.05
2023-03-23T20:10:38.646Z,6.97
2023-03-23T20:17:22.174Z,4.13
2023-03-23T20:24:04.642Z,4.75
2023-03-23T20:30:48.297Z,2.75
2023-03-23T20:37:50.723Z,3.72
2023-03-23T20:44:36.122Z,7.63
2023-03-23T20:51:18.676Z,4.53
2023-03-23T20:58:01.051Z,4.78
2023-03-23T21:04:45.247Z,6.18
2023-03-23T21:11:27.876Z,9.47
2023-03-23T21:18:11.377Z,10.63
2023-03-23T21:24:53.726Z,10.50
2023-03-23T21:31:37.589Z,11.73
2023-03-23T21:38:20.046Z,14.60
2023-03-23T21:45:02.783Z,19.92
2023-03-23T21:51:45.135Z,10.98
2023-03-23T21:58:27.561Z,14.30
2023-03-23T22:05:10.636Z,8.43
2023-03-23T22:11:52.898Z,8.52
2023-03-23T22:18:35.762Z,8.50
2023-03-23T22:25:18.221Z,8.00
2023-03-23T22:32:00.532Z,14.93
2023-03-23T22:38:46.701Z,14.52
2023-03-23T22:45:29.069Z,17.27
2023-03-23T22:52:11.242Z,11.55
2023-03-23T22:58:54.686Z,22.73
2023-03-23T23:05:43.200Z,26.20
2023-03-23T23:12:25.817Z,22.63
2023-03-23T23:19:08.381Z,33.63
2023-03-23T23:25:51.044Z,21.30
2023-03-23T23:32:33.631Z,51.00
2023-03-23T23:39:15.952Z,21.67
2023-03-23T23:45:58.252Z,16.70
2023-03-23T23:52:42.642Z,27.27
2023-03-23T23:59:25.506Z,17.13
